Pagina principale
METAR-TAF:

METAR-TAF

Aeroporti :

Entrammes

Laval, Francia

latitudine: 48-01-56N, longitudine: 000-44-34W, altezza: 101 m

Osservazione

Il bollettino è stato emesso 42 minuti fa, alle 05:00 UTC
Vento 4 kt da nord/nord-ovest
Temperature 3°C
Umidità 100%
Pressione 1013 hPa
Visibilità: 3900 m
foschia

METAR: LFOV 180500Z AUTO 33004KT 3900 BR NSC 03/03 Q1013

Ora: 06:42 (05:42 UTC)


TAF: mancante

Osservazioni e previsioni meteorologiche di più di 4000 aeroporti (messaggi METAR e TAF).

Le stazioni disponibili sono rappresentate dai dischi gialli e rossi sulla carta.

Puntare il mouse per vedere il nome della stazione.

Clicca sopra per visualizzare le osservazioni e previsioni meteorologiche.

Per cambiare la mappa : fare clic sui pulsanti verdi con una croce nera per ingrandire, il pulsante verde con un trattino per diminuire, o sulla freccia verde per le mappe adiacenti.


METAR-TAF: